KAAF/AAF METAR and TAF weather

Enter ICAO airport designator
Station Type Date Time Source
KAAF METAR 2019/04/18 19:53 UTC NOAA

KAAF 181953Z AUTO 15011G20KT 10SM CLR 25/18 A2992 RMK AO2 SLP133 T02500183


Station Type Date Time Source
KAAF Decoded METAR 2019/04/18 19:53 UTC NOAA

APALACHICOLA MUNICIPAL AIRPORT, FL, United States (KAAF) 29-44N 085-01W 5M
Apr 18, 2019 - 03:53 PM EDT / 2019.04.18 1953 UTC
Wind: from the SSE (150 degrees) at 13 MPH (11 KT) gusting to 23 MPH (20 KT):0
Visibility: 10 mile(s):0
Sky conditions: clear
Temperature: 77.0 F (25.0 C)
Dew Point: 64.9 F (18.3 C)
Relative Humidity: 66%
Pressure (altimeter): 29.92 in. Hg (1013 hPa)
ob: KAAF 181953Z AUTO 15011G20KT 10SM CLR 25/18 A2992 RMK AO2 SLP133 T02500183
cycle: 20

Station Type Date Time Source
KAAF TAF UTC NOAA

Error!

Example: see airport list